KLHB/LHB METAR and TAF weather

Enter ICAO airport designator
Station Type Date Time Source
KLHB METAR 2022/08/16 19:55 UTC NOAA

KLHB 161955Z AUTO 23007KT 10SM CLR 35/21 A2995 RMK AO2 T03510206


Station Type Date Time Source
KLHB Decoded METAR 2022/08/16 19:55 UTC NOAA

Hearne, Hearne Municipal Airport, TX, United States (KLHB) 30-52-18N 096-37-20W
Aug 16, 2022 - 03:55 PM EDT / 2022.08.16 1955 UTC
Wind: from the SW (230 degrees) at 8 MPH (7 KT):0
Visibility: 10 mile(s):0
Sky conditions: clear
Temperature: 95.2 F (35.1 C)
Heat index: 100.6 F (38.1 C):1
Dew Point: 69.1 F (20.6 C)
Relative Humidity: 42%
Pressure (altimeter): 29.95 in. Hg (1014 hPa)
ob: KLHB 161955Z AUTO 23007KT 10SM CLR 35/21 A2995 RMK AO2 T03510206
cycle: 20

Station Type Date Time Source
KLHB TAF UTC NOAA

Error!

Example: see airport list